Welcome to Northern Hawkes Bay. New Zealand.
PWS Header
      nz Flag



Hit Counter


W3C Valid W3C Valid logo


    Wairoa

Select any of the Stations below to visit their websites.










Historic Data from Weather Underground
Select the location of interest below. Wairoa is the default. Please have patience, this Data is slow to load in.
Northern Hawkes Bay Historical Data
Daily Summary for November 14, 2017 Units:  Metric    English   Both
« Previous Day
Next Day »
Daily Weekly Monthly Yearly Custom
  High: Low: Average:
Temperature: 18.0 °C 8.4 °C 13.3 °C
Dew Point: 11.4 °C 8.3 °C 9.9 °C
Humidity: 99% 57% 81%
Wind Speed: 15.8km/h 0.0km/h 4.1km/h
Wind Gust: 23.3km/h - -
Wind- - SW
Pressure: 1026.6 hPa 1022.2 hPa -
Precipitation: 3.0 mm    
Historical Graphs
 
 
Tabular Data for November 14, 2017
Time Temperature Dew Point Pressure Wind Wind Speed Wind Gust Humidity Rainfall Rate (Hourly) solar
00:04 10.4 °C 9.6 °C 1022.9 hPa West 1.1 km/h 5.0 km/h 95% 0.0 mm 0 W/m2
00:14 10.8 °C 10.2 °C 1022.9 hPa South 1.1 km/h 9.7 km/h 96% 0.0 mm 0 W/m2
00:19 11.1 °C 10.3 °C 1022.6 hPa SSE 6.1 km/h 12.2 km/h 95% 0.0 mm 0 W/m2
00:24 11.3 °C 10.4 °C 1022.9 hPa South 9.7 km/h 17.2 km/h 94% 0.0 mm 0 W/m2
00:34 11.3 °C 10.1 °C 1022.9 hPa South 7.2 km/h 17.2 km/h 92% 0.0 mm 0 W/m2
00:44 11.0 °C 9.8 °C 1022.9 hPa Calm   14.8 km/h 92% 1.3 mm 0 W/m2
00:49 10.9 °C 9.8 °C 1022.9 hPa SSE 1.1 km/h 9.7 km/h 93% 1.3 mm 0 W/m2
00:54 10.7 °C 9.8 °C 1022.9 hPa Calm   2.6 km/h 94% 1.5 mm 0 W/m2
00:59 10.7 °C 9.9 °C 1022.9 hPa NW 2.6 km/h 6.1 km/h 95% 1.5 mm 0 W/m2
01:04 10.6 °C 9.8 °C 1022.6 hPa Calm   6.1 km/h 95% 1.5 mm 0 W/m2
01:09 10.6 °C 10.0 °C 1022.9 hPa NW 1.1 km/h 5.0 km/h 96% 1.5 mm 0 W/m2
01:14 10.6 °C 10.2 °C 1022.9 hPa Calm   5.0 km/h 97% 1.5 mm 0 W/m2
01:19 10.5 °C 10.1 °C 1022.9 hPa WNW 2.6 km/h 6.1 km/h 97% 1.5 mm 0 W/m2
01:24 10.5 °C 10.1 °C 1022.9 hPa NNW 3.5 km/h 6.1 km/h 97% 1.5 mm 0 W/m2
01:29 10.5 °C 10.2 °C 1022.9 hPa NW 2.6 km/h 6.1 km/h 98% 1.5 mm 0 W/m2
01:34 10.5 °C 10.3 °C 1022.9 hPa NNW 3.5 km/h 7.2 km/h 99% 1.5 mm 0 W/m2
01:39 10.4 °C 10.3 °C 1022.9 hPa NNW 3.5 km/h 8.7 km/h 99% 1.0 mm 0 W/m2
01:44 10.3 °C 10.2 °C 1022.9 hPa NNW 6.1 km/h 9.7 km/h 99% 0.3 mm 0 W/m2
01:49 10.2 °C 10.1 °C 1022.2 hPa NNW 7.2 km/h 11.1 km/h 99% 0.3 mm 0 W/m2
01:54 10.2 °C 10.1 °C 1022.9 hPa NW 1.1 km/h 11.1 km/h 99% 0.0 mm 0 W/m2
01:59 10.2 °C 10.1 °C 1022.9 hPa SSW 1.1 km/h 9.7 km/h 99% 0.0 mm 0 W/m2
02:04 10.1 °C 9.9 °C 1022.9 hPa South 1.1 km/h 9.7 km/h 99% 0.3 mm 0 W/m2
02:09 10.0 °C 9.8 °C 1022.9 hPa Calm   6.1 km/h 99% 0.3 mm 0 W/m2
02:14 10.0 °C 9.8 °C 1022.9 hPa Calm   3.5 km/h 99% 1.0 mm 0 W/m2
02:19 9.9 °C 9.8 °C 1022.6 hPa NNE 3.5 km/h 5.0 km/h 99% 1.0 mm 0 W/m2
02:24 10.0 °C 9.8 °C 1022.6 hPa North 3.5 km/h 5.0 km/h 99% 1.0 mm 0 W/m2
02:29 9.9 °C 9.8 °C 1022.6 hPa NNW 5.0 km/h 7.2 km/h 99% 1.0 mm 0 W/m2
02:34 9.9 °C 9.8 °C 1022.6 hPa NW 2.6 km/h 7.2 km/h 99% 1.0 mm 0 W/m2
02:39 9.9 °C 9.8 °C 1022.6 hPa NW 5.0 km/h 8.7 km/h 99% 1.0 mm 0 W/m2
02:44 9.9 °C 9.8 °C 1022.6 hPa NW 3.5 km/h 8.7 km/h 99% 1.3 mm 0 W/m2
02:49 9.8 °C 9.7 °C 1022.6 hPa Calm   7.2 km/h 99% 1.3 mm 0 W/m2
02:54 9.8 °C 9.7 °C 1022.6 hPa WNW 1.1 km/h 6.1 km/h 99% 1.3 mm 0 W/m2
02:59 9.7 °C 9.6 °C 1022.9 hPa WNW 3.5 km/h 6.1 km/h 99% 1.3 mm 0 W/m2
03:04 9.8 °C 9.7 °C 1022.6 hPa NW 6.1 km/h 7.2 km/h 99% 1.3 mm 0 W/m2
03:09 9.8 °C 9.7 °C 1022.6 hPa NNW 3.5 km/h 7.2 km/h 99% 1.0 mm 0 W/m2
03:14 9.9 °C 9.8 °C 1022.6 hPa NNW 6.1 km/h 8.7 km/h 99% 0.5 mm 0 W/m2
03:19 9.9 °C 9.8 °C 1022.6 hPa NW 2.6 km/h 8.7 km/h 99% 0.5 mm 0 W/m2
03:24 9.8 °C 9.7 °C 1022.6 hPa NW 1.1 km/h 8.7 km/h 99% 0.5 mm 0 W/m2
03:29 9.7 °C 9.6 °C 1022.6 hPa NW 2.6 km/h 7.2 km/h 99% 0.5 mm 0 W/m2
03:34 9.7 °C 9.6 °C 1022.6 hPa NW 2.6 km/h 5.0 km/h 99% 0.5 mm 0 W/m2
03:39 9.7 °C 9.6 °C 1022.6 hPa NNW 2.6 km/h 5.0 km/h 99% 0.5 mm 0 W/m2
03:44 9.7 °C 9.6 °C 1022.6 hPa NNW 1.1 km/h 6.1 km/h 99% 0.3 mm 0 W/m2
03:49 9.7 °C 9.6 °C 1022.2 hPa NW 2.6 km/h 6.1 km/h 99% 0.3 mm 0 W/m2
03:54 9.7 °C 9.6 °C 1022.2 hPa NW 2.6 km/h 6.1 km/h 99% 0.3 mm 0 W/m2
03:59 9.6 °C 9.4 °C 1022.6 hPa NW 1.1 km/h 6.1 km/h 99% 0.0 mm 0 W/m2
04:04 9.5 °C 9.3 °C 1022.6 hPa NW 2.6 km/h 6.1 km/h 99% 0.0 mm 0 W/m2
04:09 9.5 °C 9.3 °C 1022.6 hPa Calm   5.0 km/h 99% 0.0 mm 0 W/m2
04:14 9.4 °C 9.3 °C 1022.6 hPa NNW 1.1 km/h 5.0 km/h 99% 0.0 mm 0 W/m2
04:19 9.3 °C 9.2 °C 1022.6 hPa Calm   5.0 km/h 99% 0.0 mm 0 W/m2
04:24 9.3 °C 9.2 °C 1022.6 hPa NNW 3.5 km/h 5.0 km/h 99% 0.0 mm 0 W/m2
04:29 9.3 °C 9.2 °C 1022.6 hPa NW 1.1 km/h 5.0 km/h 99% 0.0 mm 0 W/m2
04:34 9.2 °C 9.1 °C 1022.6 hPa NW 1.1 km/h 5.0 km/h 99% 0.0 mm 0 W/m2
04:39 9.2 °C 9.1 °C 1022.6 hPa Calm   3.5 km/h 99% 0.0 mm 0 W/m2
04:44 9.1 °C 8.9 °C 1022.6 hPa NW 2.6 km/h 3.5 km/h 99% 0.0 mm 0 W/m2
04:49 8.9 °C 8.8 °C 1022.6 hPa NW 1.1 km/h 5.0 km/h 99% 0.0 mm 0 W/m2
04:54 8.9 °C 8.8 °C 1022.6 hPa NW 1.1 km/h 5.0 km/h 99% 0.0 mm 0 W/m2
04:59 8.8 °C 8.7 °C 1022.6 hPa NW 2.6 km/h 6.1 km/h 99% 0.0 mm 0 W/m2
05:04 8.8 °C 8.7 °C 1022.6 hPa NW 1.1 km/h 6.1 km/h 99% 0.0 mm 0 W/m2
05:09 8.6 °C 8.4 °C 1022.6 hPa NNW 1.1 km/h 3.5 km/h 99% 0.0 mm 0 W/m2
05:14 8.6 °C 8.4 °C 1022.6 hPa NNW 2.6 km/h 5.0 km/h 99% 0.0 mm 0 W/m2
05:19 8.4 °C 8.3 °C 1022.6 hPa NNW 1.1 km/h 5.0 km/h 99% 0.0 mm 0 W/m2
05:24 8.4 °C 8.3 °C 1022.6 hPa NNW 2.6 km/h 5.0 km/h 99% 0.0 mm 0 W/m2
05:29 8.4 °C 8.3 °C 1022.6 hPa NNW 2.6 km/h 5.0 km/h 99% 0.0 mm 0 W/m2
05:34 8.4 °C 8.3 °C 1022.9 hPa NNW 2.6 km/h 5.0 km/h 99% 0.0 mm 0 W/m2
05:39 8.4 °C 8.3 °C 1022.6 hPa Calm   5.0 km/h 99% 0.0 mm 0 W/m2
05:44 8.4 °C 8.3 °C 1022.6 hPa North 1.1 km/h 5.0 km/h 99% 0.0 mm 0 W/m2
05:49 8.4 °C 8.3 °C 1022.9 hPa NNW 1.1 km/h 3.5 km/h 99% 0.0 mm 0 W/m2
06:14 8.7 °C 8.6 °C 1022.9 hPa North 2.6 km/h 6.1 km/h 99% 0.0 mm 9 W/m2
06:19 8.8 °C 8.7 °C 1022.9 hPa NNW 1.1 km/h 6.1 km/h 99% 0.0 mm 17 W/m2
06:24 8.8 °C 8.7 °C 1022.9 hPa NNW 1.1 km/h 5.0 km/h 99% 0.0 mm 18 W/m2
06:29 8.9 °C 8.8 °C 1023.2 hPa NNW 1.1 km/h 5.0 km/h 99% 0.0 mm 18 W/m2
06:39 8.9 °C 8.8 °C 1022.9 hPa North 1.1 km/h 6.1 km/h 99% 0.0 mm 22 W/m2
06:44 9.0 °C 8.8 °C 1022.9 hPa NNW 2.6 km/h 5.0 km/h 99% 0.0 mm 24 W/m2
06:49 9.0 °C 8.8 °C 1022.9 hPa NNW 2.6 km/h 7.2 km/h 99% 0.0 mm 31 W/m2
06:59 9.2 °C 9.1 °C 1023.2 hPa NNW 2.6 km/h 6.1 km/h 99% 0.0 mm 37 W/m2
07:04 9.2 °C 9.1 °C 1023.2 hPa NNW 2.6 km/h 6.1 km/h 99% 0.0 mm 45 W/m2
07:09 9.2 °C 9.1 °C 1023.2 hPa NNW 3.5 km/h 6.1 km/h 99% 0.0 mm 48 W/m2
07:14 9.3 °C 9.2 °C 1023.2 hPa North 2.6 km/h 6.1 km/h 99% 0.0 mm 51 W/m2
07:19 9.4 °C 9.3 °C 1023.2 hPa North 2.6 km/h 6.1 km/h 99% 0.0 mm 52 W/m2
07:24 9.5 °C 9.3 °C 1023.2 hPa North 2.6 km/h 6.1 km/h 99% 0.0 mm 63 W/m2
07:29 9.6 °C 9.4 °C 1023.2 hPa North 2.6 km/h 6.1 km/h 99% 0.0 mm 70 W/m2
07:34 9.8 °C 9.7 °C 1023.2 hPa North 2.6 km/h 6.1 km/h 99% 0.0 mm 79 W/m2
07:39 10.0 °C 9.8 °C 1023.2 hPa North 2.6 km/h 6.1 km/h 99% 0.0 mm 96 W/m2
07:44 10.2 °C 10.1 °C 1023.2 hPa NNW 2.6 km/h 5.0 km/h 99% 0.0 mm 106 W/m2
07:49 10.5 °C 10.3 °C 1023.2 hPa Calm   5.0 km/h 99% 0.0 mm 182 W/m2
07:54 10.9 °C 10.8 °C 1023.6 hPa Calm   5.0 km/h 99% 0.0 mm 131 W/m2
07:59 11.5 °C 11.2 °C 1023.6 hPa North 5.0 km/h 7.2 km/h 98% 0.0 mm 242 W/m2
08:04 12.0 °C 11.2 °C 1023.6 hPa NNE 2.6 km/h 7.2 km/h 95% 0.0 mm 289 W/m2
08:09 12.7 °C 11.4 °C 1023.9 hPa North 2.6 km/h 7.2 km/h 92% 0.0 mm 381 W/m2
08:14 13.4 °C 11.4 °C 1023.9 hPa NNW 1.1 km/h 7.2 km/h 88% 0.0 mm 331 W/m2
08:19 13.6 °C 10.8 °C 1024.3 hPa WSW 6.1 km/h 12.2 km/h 83% 0.0 mm 170 W/m2
08:24 13.1 °C 9.9 °C 1023.9 hPa WSW 1.1 km/h 12.2 km/h 81% 0.0 mm 156 W/m2
08:29 12.8 °C 9.8 °C 1024.3 hPa SW 2.6 km/h 12.2 km/h 82% 0.0 mm 118 W/m2
08:34 12.5 °C 9.5 °C 1024.3 hPa WSW 5.0 km/h 11.1 km/h 82% 0.0 mm 135 W/m2
08:39 12.2 °C 9.2 °C 1024.3 hPa WSW 11.1 km/h 17.2 km/h 82% 0.0 mm 158 W/m2
08:44 12.4 °C 9.4 °C 1024.3 hPa WSW 6.1 km/h 17.2 km/h 82% 0.0 mm 369 W/m2
08:54 13.4 °C 9.7 °C 1024.6 hPa SW 11.1 km/h 15.8 km/h 78% 0.0 mm 113 W/m2
08:59 13.2 °C 9.7 °C 1024.6 hPa SW 6.1 km/h 15.8 km/h 79% 0.0 mm 275 W/m2
09:04 13.4 °C 9.8 °C 1024.6 hPa WSW 7.2 km/h 14.8 km/h 79% 0.0 mm 205 W/m2
09:09 13.6 °C 10.1 °C 1024.6 hPa SW 11.1 km/h 14.8 km/h 79% 0.0 mm 424 W/m2
09:14 13.5 °C 9.6 °C 1024.9 hPa SW 9.7 km/h 18.3 km/h 77% 0.0 mm 283 W/m2
09:19 13.3 °C 9.2 °C 1024.9 hPa SW 14.8 km/h 18.3 km/h 76% 0.0 mm 355 W/m2
09:24 13.5 °C 9.6 °C 1024.9 hPa WSW 9.7 km/h 18.3 km/h 77% 0.0 mm 447 W/m2
09:29 14.1 °C 9.7 °C 1024.9 hPa WSW 8.7 km/h 18.3 km/h 75% 0.0 mm 473 W/m2
09:34 14.0 °C 9.4 °C 1024.9 hPa WSW 15.8 km/h 19.5 km/h 74% 0.0 mm 495 W/m2
09:39 14.1 °C 9.7 °C 1024.9 hPa SW 13.4 km/h 19.5 km/h 75% 0.0 mm 513 W/m2
09:44 13.9 °C 9.7 °C 1024.9 hPa WSW 12.2 km/h 20.9 km/h 76% 0.0 mm 524 W/m2
09:49 14.1 °C 9.7 °C 1024.9 hPa WSW 8.7 km/h 20.9 km/h 75% 0.0 mm 531 W/m2
09:54 14.4 °C 10.1 °C 1024.9 hPa SW 14.8 km/h 20.9 km/h 75% 0.0 mm 547 W/m2
09:59 14.4 °C 10.1 °C 1024.9 hPa WSW 9.7 km/h 20.9 km/h 75% 0.0 mm 553 W/m2
10:04 14.7 °C 10.1 °C 1024.9 hPa WSW 8.7 km/h 20.9 km/h 74% 0.0 mm 569 W/m2
10:09 14.6 °C 10.0 °C 1024.9 hPa SW 11.1 km/h 18.3 km/h 74% 0.0 mm 585 W/m2
10:14 14.8 °C 10.2 °C 1024.9 hPa SW 15.8 km/h 17.2 km/h 74% 0.0 mm 603 W/m2
10:19 15.0 °C 10.0 °C 1024.9 hPa SW 11.1 km/h 19.5 km/h 72% 0.0 mm 633 W/m2
10:24 15.2 °C 9.8 °C 1024.9 hPa SSW 12.2 km/h 19.5 km/h 70% 0.0 mm 656 W/m2
10:29 15.1 °C 9.7 °C 1025.3 hPa South 12.2 km/h 23.3 km/h 70% 0.0 mm 661 W/m2
10:34 15.0 °C 9.4 °C 1025.3 hPa SSW 11.1 km/h 23.3 km/h 69% 0.0 mm 695 W/m2
10:39 14.9 °C 9.7 °C 1024.9 hPa SW 7.2 km/h 19.5 km/h 71% 0.0 mm 713 W/m2
10:44 15.0 °C 9.6 °C 1024.9 hPa SW 7.2 km/h 18.3 km/h 70% 0.0 mm 727 W/m2
10:49 15.1 °C 9.7 °C 1024.9 hPa SW 6.1 km/h 17.2 km/h 70% 0.0 mm 758 W/m2
10:54 15.4 °C 10.4 °C 1025.3 hPa SW 11.1 km/h 17.2 km/h 72% 0.0 mm 761 W/m2
10:59 15.6 °C 10.2 °C 1024.9 hPa SW 13.4 km/h 15.8 km/h 70% 0.0 mm 757 W/m2
11:04 15.3 °C 9.4 °C 1024.9 hPa SW 11.1 km/h 15.8 km/h 68% 0.0 mm 758 W/m2
11:09 15.2 °C 10.0 °C 1024.9 hPa SW 11.1 km/h 19.5 km/h 71% 0.0 mm 763 W/m2
11:14 15.3 °C 10.3 °C 1025.3 hPa SW 11.1 km/h 19.5 km/h 72% 0.0 mm 772 W/m2
11:19 15.2 °C 10.0 °C 1025.3 hPa SSW 7.2 km/h 17.2 km/h 71% 0.0 mm 777 W/m2
11:24 15.1 °C 9.9 °C 1024.9 hPa SSW 13.4 km/h 19.5 km/h 71% 0.0 mm 783 W/m2
11:29 14.9 °C 10.1 °C 1024.9 hPa South 12.2 km/h 20.9 km/h 73% 0.0 mm 785 W/m2
11:34 15.4 °C 10.6 °C 1025.3 hPa South 13.4 km/h 20.9 km/h 73% 0.0 mm 806 W/m2
11:39 15.2 °C 10.0 °C 1025.3 hPa South 11.1 km/h 20.9 km/h 71% 0.0 mm 814 W/m2
11:44 15.2 °C 9.6 °C 1025.3 hPa South 11.1 km/h 19.5 km/h 69% 0.0 mm 838 W/m2
11:49 15.3 °C 9.9 °C 1024.9 hPa SSW 9.7 km/h 18.3 km/h 70% 0.0 mm 857 W/m2
11:54 15.3 °C 9.4 °C 1024.9 hPa South 15.8 km/h 20.9 km/h 68% 0.0 mm 828 W/m2
11:59 15.4 °C 9.9 °C 1024.9 hPa SSW 9.7 km/h 20.9 km/h 70% 0.0 mm 883 W/m2
12:04 15.7 °C 10.1 °C 1024.9 hPa SSW 8.7 km/h 20.9 km/h 69% 0.0 mm 955 W/m2
12:09 15.6 °C 9.9 °C 1024.9 hPa SSW 13.4 km/h 20.9 km/h 69% 0.0 mm 610 W/m2
12:27 15.3 °C 10.1 °C 1024.9 hPa South 11.1 km/h 19.5 km/h 71% 0.0 mm 675 W/m2
12:32 15.2 °C 10.2 °C 1024.9 hPa South 11.1 km/h 19.5 km/h 72% 0.0 mm 444 W/m2
12:37 15.1 °C 10.3 °C 1024.9 hPa South 8.7 km/h 18.3 km/h 73% 0.0 mm 427 W/m2
12:42 15.0 °C 9.8 °C 1024.9 hPa SSW 9.7 km/h 18.3 km/h 71% 0.0 mm 774 W/m2
12:47 15.5 °C 10.5 °C 1024.9 hPa SSW 8.7 km/h 18.3 km/h 72% 0.0 mm 603 W/m2
12:52 15.5 °C 10.1 °C 1024.9 hPa South 8.7 km/h 17.2 km/h 70% 0.0 mm 584 W/m2
12:57 15.2 °C 9.3 °C 1024.9 hPa South 7.2 km/h 18.3 km/h 68% 0.0 mm 621 W/m2
13:02 15.4 °C 9.7 °C 1024.9 hPa SSW 11.1 km/h 18.3 km/h 69% 0.0 mm 821 W/m2
13:07 15.6 °C 9.9 °C 1024.9 hPa SSW 7.2 km/h 17.2 km/h 69% 0.0 mm 786 W/m2
13:12 15.8 °C 10.1 °C 1024.9 hPa South 6.1 km/h 15.8 km/h 69% 0.0 mm 750 W/m2
13:17 16.0 °C 10.1 °C 1024.9 hPa South 13.4 km/h 15.8 km/h 68% 0.0 mm 791 W/m2
13:22 15.9 °C 10.0 °C 1024.9 hPa SSW 7.2 km/h 15.8 km/h 68% 0.0 mm 792 W/m2
13:27 15.9 °C 9.8 °C 1024.6 hPa South 12.2 km/h 15.8 km/h 67% 0.0 mm 793 W/m2
13:32 16.1 °C 9.8 °C 1024.9 hPa South 8.7 km/h 15.8 km/h 66% 0.0 mm 820 W/m2
13:37 16.3 °C 9.5 °C 1024.9 hPa South 3.5 km/h 13.4 km/h 64% 0.0 mm 857 W/m2
13:42 17.1 °C 10.0 °C 1024.9 hPa South 7.2 km/h 13.4 km/h 63% 0.0 mm 708 W/m2
13:47 16.1 °C 8.8 °C 1024.6 hPa South 6.1 km/h 15.8 km/h 62% 0.0 mm 708 W/m2
13:52 16.5 °C 9.9 °C 1024.6 hPa South 6.1 km/h 15.8 km/h 65% 0.0 mm 739 W/m2
13:57 16.5 °C 9.7 °C 1024.6 hPa South 6.1 km/h 17.2 km/h 64% 0.0 mm 747 W/m2
14:02 16.4 °C 9.3 °C 1024.6 hPa South 9.7 km/h 17.2 km/h 63% 0.0 mm 721 W/m2
14:07 16.1 °C 10.2 °C 1024.6 hPa SSE 12.2 km/h 17.2 km/h 68% 0.0 mm 703 W/m2
14:12 16.1 °C 10.0 °C 1024.6 hPa SSE 2.6 km/h 17.2 km/h 67% 0.0 mm 689 W/m2
14:17 16.5 °C 9.9 °C 1024.6 hPa SSE 8.7 km/h 17.2 km/h 65% 0.0 mm 688 W/m2
14:22 16.4 °C 10.1 °C 1024.6 hPa SSE 5.0 km/h 17.2 km/h 66% 0.0 mm 676 W/m2
14:27 16.5 °C 9.7 °C 1024.6 hPa SSE 7.2 km/h 17.2 km/h 64% 0.0 mm 671 W/m2
14:32 16.2 °C 9.8 °C 1024.6 hPa South 5.0 km/h 18.3 km/h 66% 0.0 mm 659 W/m2
14:37 16.3 °C 10.2 °C 1024.6 hPa SSE 2.6 km/h 18.3 km/h 67% 0.0 mm 649 W/m2
14:42 16.8 °C 11.3 °C 1024.6 hPa SSE 3.5 km/h 17.2 km/h 70% 0.0 mm 645 W/m2
14:47 17.5 °C 10.8 °C 1024.6 hPa South 6.1 km/h 12.2 km/h 65% 0.0 mm 641 W/m2
14:52 17.1 °C 10.2 °C 1024.6 hPa South 11.1 km/h 18.3 km/h 64% 0.0 mm 543 W/m2
14:57 16.6 °C 10.7 °C 1024.6 hPa South 2.6 km/h 18.3 km/h 68% 0.0 mm 593 W/m2
15:02 17.4 °C 11.0 °C 1024.3 hPa Calm   17.2 km/h 66% 0.0 mm 624 W/m2
15:07 17.7 °C 10.8 °C 1024.6 hPa SSE 3.5 km/h 13.4 km/h 64% 0.0 mm 351 W/m2
15:12 17.7 °C 10.6 °C 1024.6 hPa SSE 6.1 km/h 13.4 km/h 63% 0.0 mm 311 W/m2
15:17 17.3 °C 10.4 °C 1024.6 hPa SE 5.0 km/h 13.4 km/h 64% 0.0 mm 583 W/m2
15:22 17.7 °C 10.6 °C 1024.3 hPa SE 2.6 km/h 13.4 km/h 63% 0.0 mm 575 W/m2
15:27 17.8 °C 10.4 °C 1024.3 hPa SE 1.1 km/h 15.8 km/h 62% 0.0 mm 566 W/m2
15:32 18.0 °C 10.8 °C 1024.3 hPa ESE 6.1 km/h 15.8 km/h 63% 0.0 mm 552 W/m2
15:37 17.7 °C 10.3 °C 1024.3 hPa SSE 6.1 km/h 13.4 km/h 62% 0.0 mm 534 W/m2
15:42 17.6 °C 10.2 °C 1024.3 hPa Calm   14.8 km/h 62% 0.0 mm 534 W/m2
15:47 17.8 °C 10.2 °C 1024.3 hPa ESE 2.6 km/h 14.8 km/h 61% 0.0 mm 524 W/m2
15:52 17.6 °C 10.2 °C 1024.3 hPa SE 11.1 km/h 14.8 km/h 62% 0.0 mm 520 W/m2
15:57 17.7 °C 11.3 °C 1024.3 hPa SSE 5.0 km/h 14.8 km/h 66% 0.0 mm 521 W/m2
16:02 17.9 °C 11.2 °C 1024.3 hPa SSE 11.1 km/h 15.8 km/h 65% 0.0 mm 513 W/m2
16:07 17.2 °C 10.8 °C 1024.3 hPa SSE 2.6 km/h 15.8 km/h 66% 0.0 mm 448 W/m2
16:15 17.2 °C 10.8 °C 1024.3 hPa SE 3.5 km/h 14.8 km/h 66% 0.0 mm 111 W/m2
16:35 17.1 °C 10.7 °C 1024.3 hPa SSE 2.6 km/h 15.8 km/h 66% 0.0 mm 418 W/m2
16:40 17.3 °C 10.7 °C 1024.3 hPa SSE 6.1 km/h 15.8 km/h 65% 0.0 mm 409 W/m2
16:45 17.4 °C 11.2 °C 1024.3 hPa SSE 3.5 km/h 14.8 km/h 67% 0.0 mm 399 W/m2
16:50 17.1 °C 10.7 °C 1024.3 hPa SSE 7.2 km/h 13.4 km/h 66% 0.0 mm 389 W/m2
16:58 17.4 °C 10.8 °C 1024.3 hPa SE 6.1 km/h 14.8 km/h 65% 0.0 mm 367 W/m2
17:03 17.5 °C 10.6 °C 1024.6 hPa SE 2.6 km/h 17.2 km/h 64% 0.0 mm 357 W/m2
17:08 17.2 °C 10.1 °C 1024.6 hPa SSE 2.6 km/h 17.2 km/h 63% 0.0 mm 342 W/m2
17:13 17.4 °C 10.1 °C 1024.6 hPa SE 3.5 km/h 17.2 km/h 62% 0.0 mm 328 W/m2
17:18 17.7 °C 10.6 °C 1024.6 hPa SE 6.1 km/h 13.4 km/h 63% 0.0 mm 318 W/m2
17:23 17.4 °C 10.1 °C 1024.6 hPa SE 5.0 km/h 13.4 km/h 62% 0.0 mm 304 W/m2
17:28 17.3 °C 9.9 °C 1024.3 hPa SSE 7.2 km/h 13.4 km/h 62% 0.0 mm 294 W/m2
17:33 17.4 °C 9.6 °C 1024.3 hPa SE 2.6 km/h 11.1 km/h 60% 0.0 mm 280 W/m2
17:38 17.8 °C 10.2 °C 1024.3 hPa SE 2.6 km/h 11.1 km/h 61% 0.0 mm 269 W/m2
17:43 17.8 °C 10.4 °C 1024.6 hPa Calm   11.1 km/h 62% 0.0 mm 256 W/m2
17:48 17.9 °C 10.1 °C 1024.6 hPa SSE 1.1 km/h 11.1 km/h 60% 0.0 mm 250 W/m2
17:53 17.7 °C 9.8 °C 1024.6 hPa SE 2.6 km/h 9.7 km/h 60% 0.0 mm 245 W/m2
17:58 18.0 °C 9.6 °C 1024.6 hPa SE 5.0 km/h 9.7 km/h 58% 0.0 mm 237 W/m2
18:03 17.9 °C 9.3 °C 1024.6 hPa SSE 2.6 km/h 11.1 km/h 57% 0.0 mm 157 W/m2
18:09 16.8 °C 9.5 °C 1024.6 hPa SE 3.5 km/h 11.1 km/h 62% 0.0 mm 213 W/m2
18:14 17.2 °C 9.9 °C 1024.3 hPa SE 1.1 km/h 7.2 km/h 62% 0.0 mm 173 W/m2
18:19 17.5 °C 9.9 °C 1024.6 hPa SE 1.1 km/h 7.2 km/h 61% 0.0 mm 73 W/m2
18:24 16.3 °C 9.0 °C 1024.6 hPa SE 1.1 km/h 7.2 km/h 62% 0.0 mm 81 W/m2
18:29 15.7 °C 9.4 °C 1024.6 hPa SE 5.0 km/h 7.2 km/h 66% 0.0 mm 66 W/m2
18:34 15.3 °C 9.7 °C 1024.6 hPa SSE 1.1 km/h 7.2 km/h 69% 0.0 mm 71 W/m2
18:39 15.1 °C 9.7 °C 1024.6 hPa Calm   7.2 km/h 70% 0.0 mm 71 W/m2
18:45 15.0 °C 10.0 °C 1024.6 hPa SSE 1.1 km/h 6.1 km/h 72% 0.0 mm 53 W/m2
18:50 14.8 °C 10.0 °C 1024.9 hPa Calm   6.1 km/h 73% 0.0 mm 43 W/m2
18:55 14.7 °C 10.1 °C 1024.9 hPa SE 1.1 km/h 6.1 km/h 74% 0.0 mm 33 W/m2
19:00 14.6 °C 10.0 °C 1024.9 hPa South 1.1 km/h 12.2 km/h 74% 0.0 mm 27 W/m2
19:06 14.4 °C 9.8 °C 1024.9 hPa South 1.1 km/h 12.2 km/h 74% 0.0 mm 20 W/m2
19:11 14.3 °C 9.7 °C 1024.9 hPa Calm   8.7 km/h 74% 0.0 mm 16 W/m2
19:16 14.3 °C 9.9 °C 1024.9 hPa SSE 2.6 km/h 8.7 km/h 75% 0.0 mm 12 W/m2
19:21 14.2 °C 9.8 °C 1024.9 hPa South 1.1 km/h 8.7 km/h 75% 0.0 mm 10 W/m2
19:26 14.2 °C 9.8 °C 1025.3 hPa South 1.1 km/h 6.1 km/h 75% 0.0 mm 8 W/m2
19:31 14.2 °C 9.8 °C 1025.3 hPa South 6.1 km/h 11.1 km/h 75% 0.0 mm 5 W/m2
19:36 14.1 °C 9.6 °C 1024.9 hPa South 3.5 km/h 11.1 km/h 74% 0.0 mm 4 W/m2
19:41 14.1 °C 9.7 °C 1025.3 hPa South 2.6 km/h 9.7 km/h 75% 0.0 mm 2 W/m2
19:46 14.1 °C 9.7 °C 1025.3 hPa SSE 3.5 km/h 8.7 km/h 75% 0.0 mm 0 W/m2
19:51 14.0 °C 9.7 °C 1025.3 hPa SSE 2.6 km/h 8.7 km/h 75% 0.0 mm 0 W/m2
19:56 14.0 °C 9.8 °C 1025.3 hPa Calm   8.7 km/h 76% 0.0 mm 0 W/m2
20:01 14.0 °C 9.8 °C 1025.3 hPa Calm   6.1 km/h 76% 0.0 mm 0 W/m2
20:06 14.0 °C 9.8 °C 1025.3 hPa South 2.6 km/h 7.2 km/h 76% 0.0 mm 0 W/m2
20:11 13.9 °C 9.9 °C 1025.3 hPa South 2.6 km/h 7.2 km/h 77% 0.0 mm 0 W/m2
20:16 13.8 °C 10.1 °C 1025.3 hPa SSE 1.1 km/h 9.7 km/h 78% 0.0 mm 0 W/m2
20:21 13.8 °C 10.2 °C 1025.3 hPa SSE 2.6 km/h 9.7 km/h 79% 0.0 mm 0 W/m2
20:26 13.8 °C 10.2 °C 1025.3 hPa SE 1.1 km/h 8.7 km/h 79% 0.0 mm 0 W/m2
20:31 13.8 °C 10.2 °C 1025.6 hPa SSE 2.6 km/h 8.7 km/h 79% 0.0 mm 0 W/m2
20:36 13.8 °C 10.2 °C 1025.3 hPa Calm   7.2 km/h 79% 0.0 mm 0 W/m2
20:41 13.8 °C 10.4 °C 1025.6 hPa South 1.1 km/h 3.5 km/h 80% 0.0 mm 0 W/m2
20:46 13.8 °C 10.4 °C 1025.6 hPa Calm   2.6 km/h 80% 0.0 mm 0 W/m2
20:51 13.8 °C 10.4 °C 1025.6 hPa Calm   2.6 km/h 80% 0.0 mm 0 W/m2
21:01 13.6 °C 10.2 °C 1025.6 hPa Calm   1.1 km/h 80% 0.0 mm 0 W/m2
21:06 13.6 °C 10.2 °C 1026.0 hPa Calm     80% 0.0 mm 0 W/m2
21:11 13.6 °C 10.4 °C 1026.0 hPa Calm   1.1 km/h 81% 0.0 mm 0 W/m2
21:16 13.6 °C 10.4 °C 1026.0 hPa Calm   1.1 km/h 81% 0.0 mm 0 W/m2
21:21 13.5 °C 10.5 °C 1026.0 hPa Calm     82% 0.0 mm 0 W/m2
21:26 13.5 °C 10.5 °C 1026.0 hPa Calm     82% 0.0 mm 0 W/m2
21:31 13.5 °C 10.5 °C 1026.0 hPa Calm     82% 0.0 mm 0 W/m2
21:36 13.4 °C 10.4 °C 1026.3 hPa Calm     82% 0.0 mm 0 W/m2
21:41 13.3 °C 10.3 °C 1026.0 hPa Calm     82% 0.0 mm 0 W/m2
21:46 13.3 °C 10.3 °C 1026.3 hPa Calm     82% 0.0 mm 0 W/m2
21:51 13.3 °C 10.3 °C 1026.3 hPa Calm     82% 0.0 mm 0 W/m2
21:56 13.2 °C 10.4 °C 1026.3 hPa Calm     83% 0.0 mm 0 W/m2
22:02 13.3 °C 10.7 °C 1026.3 hPa Calm     84% 0.0 mm 0 W/m2
22:07 13.3 °C 10.7 °C 1026.3 hPa Calm     84% 0.0 mm 0 W/m2
22:13 13.2 °C 10.6 °C 1026.3 hPa Calm     84% 0.0 mm 0 W/m2
22:18 13.1 °C 10.7 °C 1026.3 hPa Calm     85% 0.0 mm 0 W/m2
22:23 13.1 °C 10.7 °C 1026.6 hPa Calm     85% 0.0 mm 0 W/m2
22:28 13.0 °C 10.6 °C 1026.6 hPa Calm     85% 0.0 mm 0 W/m2
22:33 13.0 °C 10.6 °C 1026.3 hPa Calm     85% 0.0 mm 0 W/m2
22:38 13.1 °C 10.8 °C 1026.3 hPa Calm     86% 0.0 mm 0 W/m2
22:43 13.1 °C 11.0 °C 1026.3 hPa Calm     87% 0.0 mm 0 W/m2
22:53 13.0 °C 11.1 °C 1026.3 hPa Calm     88% 0.0 mm 0 W/m2
22:58 12.9 °C 10.9 °C 1026.3 hPa Calm     88% 0.0 mm 0 W/m2
23:03 12.9 °C 10.9 °C 1026.3 hPa Calm     88% 0.0 mm 0 W/m2
23:08 12.8 °C 10.9 °C 1026.3 hPa Calm     88% 0.0 mm 0 W/m2
23:13 12.8 °C 10.9 °C 1026.3 hPa Calm     88% 0.0 mm 0 W/m2
23:18 12.7 °C 10.8 °C 1026.6 hPa Calm     88% 0.0 mm 0 W/m2
23:23 12.5 °C 10.6 °C 1026.3 hPa Calm     88% 0.0 mm 0 W/m2
23:28 12.4 °C 10.4 °C 1026.3 hPa Calm     88% 0.0 mm 0 W/m2
23:33 12.3 °C 10.6 °C 1026.3 hPa Calm     89% 0.0 mm 0 W/m2
23:38 12.2 °C 10.4 °C 1026.6 hPa Calm     89% 0.0 mm 0 W/m2
23:43 12.2 °C 10.4 °C 1026.6 hPa Calm     89% 0.0 mm 0 W/m2
23:48 12.2 °C 10.6 °C 1026.3 hPa Calm     90% 0.0 mm 0 W/m2
23:53 12.2 °C 10.6 °C 1026.3 hPa Calm     90% 0.0 mm 0 W/m2
23:58 12.1 °C 10.5 °C 1026.3 hPa Calm     90% 0.0 mm 0 W/m2
Northern Hawkes Bay. New Zealand Historic Data
Compliments of Weather Underground - 2.25 mb